Time;durP1;ratioP1;P1;durP2;ratioP2;P2;SDS_P1;SDS_P2;PMS_P1;PMS_P2;Temp;Humidity;BMP_temperature;BMP_pressure;BME280_temperature;BME280_humidity;BME280_pressure;Samples;Min_cycle;Max_cycle;Signal;HPM_P1;HPM_P2
2020/12/11 00:01:58;;;;;;;;;;;;;;;0.66;100.00;95343.59;5069989;28;19924;-48
2020/12/11 00:04:25;;;;;;;;;;;;;;;0.58;100.00;95344.13;5042798;28;19958;-49
2020/12/11 00:06:52;;;;;;;;;;;;;;;0.59;100.00;95343.19;5075015;28;20432;-48
2020/12/11 00:09:19;;;;;;;;;;;;;;;0.60;100.00;95337.06;5041417;28;19932;-52
2020/12/11 00:11:46;;;;;;;;;;;;;;;0.56;100.00;95327.84;5066875;28;19940;-48
2020/12/11 00:14:12;;;;;;;;;;;;;;;0.59;100.00;95322.44;5045239;28;20247;-50
2020/12/11 00:16:40;;;;;;;;;;;;;;;0.56;100.00;95320.06;5077350;28;19928;-52
2020/12/11 00:19:07;;;;;;;;;;;;;;;0.66;100.00;95313.28;5042213;28;19928;-51
2020/12/11 00:21:37;;;;;;;;;;;;;;;0.69;100.00;95323.44;5083197;28;19928;-49
2020/12/11 00:24:04;;;;;;;;;;;;;;;0.65;100.00;95319.41;5033027;28;20425;-48
2020/12/11 00:26:31;;;;;;;;;;;;;;;0.71;100.00;95312.94;5068387;28;19946;-48
2020/12/11 00:28:58;;;;;;;;;;;;;;;0.62;100.00;95317.03;5073805;28;19924;-55
2020/12/11 00:31:25;;;;;;;;;;;;;;;0.66;100.00;95310.69;5033887;28;19925;-48
2020/12/11 00:33:53;;;;;;;;;;;;;;;0.70;100.00;95317.28;5064782;28;19931;-54
2020/12/11 00:36:20;;;;;;;;;;;;;;;0.67;100.00;95311.50;5028572;28;19957;-49
2020/12/11 00:38:47;;;;;;;;;;;;;;;0.70;100.00;95314.69;5063954;28;19925;-50
2020/12/11 00:41:14;;;;;;;;;;;;;;;0.76;100.00;95316.03;5045574;28;20015;-50
2020/12/11 00:43:41;;;;;;;;;;;;;;;0.82;100.00;95319.91;5047777;28;19968;-49
2020/12/11 00:46:07;;;;;;;;;;;;;;;0.73;100.00;95318.03;5004742;28;20016;-50
2020/12/11 00:48:34;;;;;;;;;;;;;;;0.80;100.00;95312.25;5044571;28;19933;-48
2020/12/11 00:51:01;;;;;;;;;;;;;;;0.76;100.00;95317.78;5036310;28;20364;-51
2020/12/11 00:53:29;;;;;;;;;;;;;;;0.78;100.00;95314.13;5087833;28;19928;-50
2020/12/11 00:55:57;;;;;;;;;;;;;;;0.65;100.00;95301.25;5005206;28;19935;-48
2020/12/11 00:58:24;;;;;;;;;;;;;;;0.67;100.00;95295.94;5058995;28;19929;-51
2020/12/11 01:00:51;;;;;;;;;;;;;;;0.63;100.00;95295.34;5039554;28;20348;-49
2020/12/11 01:03:18;;;;;;;;;;;;;;;0.68;100.00;95287.22;5071325;28;19928;-50
2020/12/11 01:05:45;;;;;;;;;;;;;;;0.69;100.00;95291.47;5024510;28;24086;-52
2020/12/11 01:08:13;;;;;;;;;;;;;;;0.68;100.00;95287.22;5050649;28;19990;-54
2020/12/11 01:10:40;;;;;;;;;;;;;;;0.67;100.00;95288.97;5039749;28;19948;-51
2020/12/11 01:13:07;;;;;;;;;;;;;;;0.73;100.00;95285.13;5067943;28;19928;-52
2020/12/11 01:15:34;;;;;;;;;;;;;;;0.76;100.00;95290.09;5069768;28;20007;-48
2020/12/11 01:18:00;;;;;;;;;;;;;;;0.72;100.00;95286.03;5039211;28;19924;-48
2020/12/11 01:20:27;;;;;;;;;;;;;;;0.68;100.00;95279.44;5063409;28;19964;-53
2020/12/11 01:22:54;;;;;;;;;;;;;;;0.70;100.00;95283.56;5035416;28;20007;-48
2020/12/11 01:25:22;;;;;;;;;;;;;;;0.66;100.00;95279.56;5065591;28;19931;-52
2020/12/11 01:27:48;;;;;;;;;;;;;;;0.66;100.00;95282.16;5031153;28;19925;-48
2020/12/11 01:30:15;;;;;;;;;;;;;;;0.67;100.00;95280.38;5069333;28;19928;-53
2020/12/11 01:32:42;;;;;;;;;;;;;;;0.74;100.00;95288.53;5038211;28;19924;-52
2020/12/11 01:35:09;;;;;;;;;;;;;;;0.58;100.00;95281.03;5060114;28;19978;-50
2020/12/11 01:37:35;;;;;;;;;;;;;;;0.62;100.00;95279.88;5030218;28;19928;-52
2020/12/11 01:40:02;;;;;;;;;;;;;;;0.60;100.00;95272.22;5062339;28;19972;-51
2020/12/11 01:42:30;;;;;;;;;;;;;;;0.61;100.00;95275.63;5018008;28;19931;-49
2020/12/11 01:44:57;;;;;;;;;;;;;;;0.69;100.00;95268.13;5052557;28;19928;-48
2020/12/11 01:47:24;;;;;;;;;;;;;;;0.77;100.00;95270.97;5036156;28;19985;-51
2020/12/11 01:49:51;;;;;;;;;;;;;;;0.85;100.00;95279.00;5068515;28;19925;-53
2020/12/11 01:52:18;;;;;;;;;;;;;;;0.81;100.00;95268.97;5039144;28;19924;-56
2020/12/11 01:54:46;;;;;;;;;;;;;;;0.78;100.00;95267.44;5073777;28;19924;-51
2020/12/11 01:57:14;;;;;;;;;;;;;;;0.85;100.00;95263.44;5069075;28;19931;-51
2020/12/11 01:59:42;;;;;;;;;;;;;;;0.78;100.00;95264.00;5036191;28;19924;-48
2020/12/11 02:02:09;;;;;;;;;;;;;;;0.88;100.00;95271.00;5067542;28;19924;-49
2020/12/11 02:04:37;;;;;;;;;;;;;;;0.91;100.00;95265.56;5027876;28;21222;-47
2020/12/11 02:07:05;;;;;;;;;;;;;;;0.86;100.00;95270.28;5065908;28;20004;-48
2020/12/11 02:09:32;;;;;;;;;;;;;;;0.87;100.00;95265.94;5041253;28;20358;-50
2020/12/11 02:11:59;;;;;;;;;;;;;;;0.84;100.00;95272.16;5066642;28;19925;-49
2020/12/11 02:14:26;;;;;;;;;;;;;;;0.83;100.00;95270.53;5040488;28;20002;-50
2020/12/11 02:16:57;;;;;;;;;;;;;;;0.79;100.00;95268.25;5067658;28;19928;-49
2020/12/11 02:19:29;;;;;;;;;;;;;;;0.93;100.00;95274.09;5023423;28;19928;-47
2020/12/11 02:21:57;;;;;;;;;;;;;;;0.92;100.00;95262.03;5068492;28;20032;-49
2020/12/11 02:24:24;;;;;;;;;;;;;;;0.82;100.00;95258.47;5036632;28;19924;-54
2020/12/11 02:26:53;;;;;;;;;;;;;;;0.78;100.00;95259.66;5069416;28;19956;-55
2020/12/11 02:29:20;;;;;;;;;;;;;;;0.80;100.00;95249.16;5044957;28;19985;-53
2020/12/11 02:31:46;;;;;;;;;;;;;;;0.86;100.00;95252.13;5074496;28;19946;-48
2020/12/11 02:34:13;;;;;;;;;;;;;;;0.89;100.00;95240.66;5033925;28;19928;-51
2020/12/11 02:36:40;;;;;;;;;;;;;;;0.84;100.00;95248.00;5068530;28;19925;-48
2020/12/11 02:39:08;;;;;;;;;;;;;;;0.76;100.00;95230.41;5039426;28;19925;-56
2020/12/11 02:41:35;;;;;;;;;;;;;;;0.63;100.00;95221.88;5064854;28;19974;-48
2020/12/11 02:44:02;;;;;;;;;;;;;;;0.61;100.00;95218.56;5070521;28;19967;-50
2020/12/11 02:46:29;;;;;;;;;;;;;;;0.58;100.00;95216.19;5035898;28;19947;-50
2020/12/11 02:48:56;;;;;;;;;;;;;;;0.57;100.00;95214.56;5064089;28;19932;-48
2020/12/11 02:51:23;;;;;;;;;;;;;;;0.60;100.00;95214.34;5026200;28;19978;-49
2020/12/11 02:53:50;;;;;;;;;;;;;;;0.56;100.00;95218.94;5060171;28;19963;-48
2020/12/11 02:56:19;;;;;;;;;;;;;;;0.59;100.00;95220.47;5031824;28;19934;-48
2020/12/11 02:58:45;;;;;;;;;;;;;;;0.73;100.00;95216.84;5072551;28;20401;-48
2020/12/11 03:01:12;;;;;;;;;;;;;;;0.75;100.00;95213.16;5019398;28;20011;-48
2020/12/11 03:03:39;;;;;;;;;;;;;;;0.89;100.00;95206.94;5059698;28;20364;-48
2020/12/11 03:06:06;;;;;;;;;;;;;;;0.81;100.00;95204.94;5033203;28;19960;-47
2020/12/11 03:08:33;;;;;;;;;;;;;;;0.79;100.00;95208.56;5043216;28;20024;-53
2020/12/11 03:10:59;;;;;;;;;;;;;;;0.71;100.00;95206.56;5015400;28;19952;-51
2020/12/11 03:13:27;;;;;;;;;;;;;;;0.67;100.00;95200.78;5040582;28;19925;-48
2020/12/11 03:15:54;;;;;;;;;;;;;;;0.73;100.00;95193.50;5029373;28;22422;-49
2020/12/11 03:18:21;;;;;;;;;;;;;;;0.77;100.00;95189.72;5062943;28;19925;-48
2020/12/11 03:20:49;;;;;;;;;;;;;;;0.81;100.00;95183.34;5035658;28;19978;-49
2020/12/11 03:23:16;;;;;;;;;;;;;;;0.79;100.00;95183.47;5072394;28;19924;-50
2020/12/11 03:25:42;;;;;;;;;;;;;;;0.79;100.00;95167.91;5067628;28;20346;-51
2020/12/11 03:28:09;;;;;;;;;;;;;;;0.76;100.00;95175.06;5022451;28;19925;-51
2020/12/11 03:30:36;;;;;;;;;;;;;;;0.73;100.00;95164.97;5059765;28;19932;-49
2020/12/11 03:33:03;;;;;;;;;;;;;;;0.68;100.00;95168.69;5032018;28;19986;-48
2020/12/11 03:35:30;;;;;;;;;;;;;;;0.62;100.00;95165.75;5067858;28;19956;-51
2020/12/11 03:37:56;;;;;;;;;;;;;;;0.58;100.00;95162.56;5039618;28;19968;-50
2020/12/11 03:40:23;;;;;;;;;;;;;;;0.55;100.00;95155.03;5074969;28;19931;-50
2020/12/11 03:42:50;;;;;;;;;;;;;;;0.50;100.00;95154.53;5047839;28;19963;-47
2020/12/11 03:45:17;;;;;;;;;;;;;;;0.44;100.00;95155.81;5076631;28;19931;-52
2020/12/11 03:47:44;;;;;;;;;;;;;;;0.39;100.00;95151.94;5037296;28;19924;-51
2020/12/11 03:50:11;;;;;;;;;;;;;;;0.32;100.00;95148.97;5071104;28;19924;-52
2020/12/11 03:52:38;;;;;;;;;;;;;;;0.28;100.00;95147.56;5034306;28;20317;-52
2020/12/11 03:55:04;;;;;;;;;;;;;;;0.25;100.00;95158.16;5072313;28;19932;-49
2020/12/11 03:57:31;;;;;;;;;;;;;;;0.30;100.00;95143.06;5043016;28;22331;-50
2020/12/11 03:59:58;;;;;;;;;;;;;;;0.31;100.00;95139.56;5080820;28;19943;-49
2020/12/11 04:02:24;;;;;;;;;;;;;;;0.36;100.00;95137.44;5039197;28;19932;-54
2020/12/11 04:04:52;;;;;;;;;;;;;;;0.38;100.00;95140.75;5082989;28;20019;-48
2020/12/11 04:07:20;;;;;;;;;;;;;;;0.40;100.00;95133.66;5071999;28;19924;-48
2020/12/11 04:09:47;;;;;;;;;;;;;;;0.41;100.00;95134.47;5038125;28;19932;-49
2020/12/11 04:12:14;;;;;;;;;;;;;;;0.37;100.00;95138.25;5076160;28;19932;-48
2020/12/11 04:14:41;;;;;;;;;;;;;;;0.33;100.00;95135.06;5035911;28;20371;-50
2020/12/11 04:17:07;;;;;;;;;;;;;;;0.35;100.00;95146.16;5075465;28;20608;-51
2020/12/11 04:19:35;;;;;;;;;;;;;;;0.36;100.00;95139.19;5035963;28;19954;-48
2020/12/11 04:22:02;;;;;;;;;;;;;;;0.29;100.00;95136.22;5075008;28;19933;-52
2020/12/11 04:24:29;;;;;;;;;;;;;;;0.17;100.00;95134.53;5044006;27;20378;-51
2020/12/11 04:26:56;;;;;;;;;;;;;;;0.00;100.00;95128.03;5069009;28;19931;-48
2020/12/11 04:29:23;;;;;;;;;;;;;;;-0.21;100.00;95121.81;5030803;28;19929;-48
2020/12/11 04:31:53;;;;;;;;;;;;;;;-0.34;100.00;95117.56;5046704;28;20554;-51
2020/12/11 04:34:20;;;;;;;;;;;;;;;-0.39;100.00;95117.06;5010143;28;20406;-52
2020/12/11 04:36:50;;;;;;;;;;;;;;;-0.53;100.00;95119.81;5064980;28;19928;-47
2020/12/11 04:39:18;;;;;;;;;;;;;;;-0.60;100.00;95119.41;5036964;28;19924;-51
2020/12/11 04:41:45;;;;;;;;;;;;;;;-0.56;100.00;95114.84;5066945;28;20352;-50
2020/12/11 04:44:12;;;;;;;;;;;;;;;-0.63;100.00;95113.63;5042725;28;19932;-48
2020/12/11 04:46:39;;;;;;;;;;;;;;;-0.69;100.00;95121.84;5068846;28;19936;-52
2020/12/11 04:49:06;;;;;;;;;;;;;;;-0.64;100.00;95112.81;5057505;28;19925;-55
2020/12/11 04:51:33;;;;;;;;;;;;;;;-0.62;100.00;95112.69;5042051;28;20011;-48
2020/12/11 04:54:01;;;;;;;;;;;;;;;-0.51;100.00;95107.59;5075289;28;20023;-48
2020/12/11 04:56:29;;;;;;;;;;;;;;;-0.38;100.00;95099.75;5029747;28;20019;-48
2020/12/11 04:58:56;;;;;;;;;;;;;;;-0.29;100.00;95097.31;5073573;28;19938;-53
2020/12/11 05:01:29;;;;;;;;;;;;;;;-0.18;100.00;95098.28;5025287;28;19924;-47
2020/12/11 05:03:57;;;;;;;;;;;;;;;-0.13;100.00;95099.63;5053983;28;20264;-47
2020/12/11 05:06:23;;;;;;;;;;;;;;;-0.08;100.00;95092.31;5026221;28;20035;-49
2020/12/11 05:08:54;;;;;;;;;;;;;;;0.02;100.00;95095.06;5050138;28;19932;-50
2020/12/11 05:11:27;;;;;;;;;;;;;;;0.06;100.00;95083.50;5028486;28;19924;-50
2020/12/11 05:13:54;;;;;;;;;;;;;;;0.08;100.00;95081.66;5071702;28;19964;-48
2020/12/11 05:16:21;;;;;;;;;;;;;;;0.11;100.00;95072.81;5042084;28;20019;-48
2020/12/11 05:18:52;;;;;;;;;;;;;;;0.17;100.00;95075.78;5077698;28;20033;-52
2020/12/11 05:21:20;;;;;;;;;;;;;;;0.18;100.00;95067.06;5030920;28;19924;-47
2020/12/11 05:24:03;;;;;;;;;;;;;;;0.21;100.00;95061.66;5051688;28;20362;-47
2020/12/11 05:26:30;;;;;;;;;;;;;;;0.25;100.00;95061.41;5042518;28;19924;-49
2020/12/11 05:28:58;;;;;;;;;;;;;;;0.24;100.00;95055.38;5072903;28;19925;-48
2020/12/11 05:31:25;;;;;;;;;;;;;;;0.29;100.00;95052.47;5022437;28;19961;-48
2020/12/11 05:34:01;;;;;;;;;;;;;;;0.29;100.00;95040.31;5030698;28;19932;-50
2020/12/11 05:36:28;;;;;;;;;;;;;;;0.25;100.00;95040.69;5018349;28;19960;-52
2020/12/11 05:38:55;;;;;;;;;;;;;;;0.27;100.00;95042.19;5051437;28;19932;-47
2020/12/11 05:41:31;;;;;;;;;;;;;;;0.26;100.00;95039.72;5041961;28;20517;-51
2020/12/11 05:43:59;;;;;;;;;;;;;;;0.21;100.00;95038.31;5063116;28;19982;-54
2020/12/11 05:46:28;;;;;;;;;;;;;;;0.21;100.00;95033.13;5031694;28;20329;-55
2020/12/11 05:48:57;;;;;;;;;;;;;;;0.27;100.00;95036.19;5067249;28;20432;-49
2020/12/11 05:51:25;;;;;;;;;;;;;;;0.31;100.00;95041.03;5074251;28;20402;-49
2020/12/11 05:53:52;;;;;;;;;;;;;;;0.33;100.00;95041.72;5033030;28;19928;-47
2020/12/11 05:56:20;;;;;;;;;;;;;;;0.39;100.00;95037.84;5089243;28;19925;-49
2020/12/11 05:58:48;;;;;;;;;;;;;;;0.40;100.00;95029.94;5048626;28;19935;-48
2020/12/11 06:01:18;;;;;;;;;;;;;;;0.42;100.00;95032.44;5063338;28;20375;-47
2020/12/11 06:03:45;;;;;;;;;;;;;;;0.49;100.00;95032.78;5029964;28;19955;-53
2020/12/11 06:06:14;;;;;;;;;;;;;;;0.46;100.00;95028.66;5073525;28;19924;-47
2020/12/11 06:08:42;;;;;;;;;;;;;;;0.45;100.00;95027.00;5032384;28;19925;-49
2020/12/11 06:11:09;;;;;;;;;;;;;;;0.49;100.00;95028.41;5071014;28;20015;-48
2020/12/11 06:13:37;;;;;;;;;;;;;;;0.60;100.00;95028.41;5033631;28;19974;-49
2020/12/11 06:16:05;;;;;;;;;;;;;;;0.58;100.00;95029.47;5071619;28;19932;-49
2020/12/11 06:18:33;;;;;;;;;;;;;;;0.52;100.00;95027.34;5034852;28;20019;-48
2020/12/11 06:21:00;;;;;;;;;;;;;;;0.48;100.00;95024.16;5068734;28;20042;-47
2020/12/11 06:23:28;;;;;;;;;;;;;;;0.49;100.00;95025.00;5027419;28;19970;-49
2020/12/11 06:25:55;;;;;;;;;;;;;;;0.53;100.00;95022.03;5067043;28;19928;-49
2020/12/11 06:28:38;;;;;;;;;;;;;;;0.49;100.00;95020.66;5039270;28;19936;-46
2020/12/11 06:31:05;;;;;;;;;;;;;;;0.51;100.00;95012.72;5068891;28;20008;-51
2020/12/11 06:33:34;;;;;;;;;;;;;;;0.48;100.00;95011.19;5037604;28;19924;-54
2020/12/11 06:36:01;;;;;;;;;;;;;;;0.50;100.00;95011.09;5072670;28;20047;-49
2020/12/11 06:38:43;;;;;;;;;;;;;;;0.47;100.00;95004.38;5017488;28;20395;-48
2020/12/11 06:41:10;;;;;;;;;;;;;;;0.49;100.00;95004.25;5059576;28;19933;-49
2020/12/11 06:43:40;;;;;;;;;;;;;;;0.44;100.00;94997.63;5046747;28;19924;-50
2020/12/11 06:46:10;;;;;;;;;;;;;;;0.50;100.00;95000.72;5064504;28;19931;-47
2020/12/11 06:48:38;;;;;;;;;;;;;;;0.44;100.00;94999.41;5055095;28;20015;-50
2020/12/11 06:51:05;;;;;;;;;;;;;;;0.41;100.00;94997.06;5025775;28;19932;-51
2020/12/11 06:53:39;;;;;;;;;;;;;;;0.34;100.00;94993.28;5069591;28;19939;-54
2020/12/11 06:56:06;;;;;;;;;;;;;;;0.35;100.00;94989.78;5040274;28;19971;-47
2020/12/11 06:58:32;;;;;;;;;;;;;;;0.33;100.00;94981.28;5067594;28;19925;-49
2020/12/11 07:00:59;;;;;;;;;;;;;;;0.36;100.00;94979.28;5029411;28;19965;-49
2020/12/11 07:03:26;;;;;;;;;;;;;;;0.39;100.00;94981.63;5062694;28;20366;-51
2020/12/11 07:06:01;;;;;;;;;;;;;;;0.40;100.00;94972.91;5015709;28;19928;-48
2020/12/11 07:08:30;;;;;;;;;;;;;;;0.46;100.00;94976.78;5073853;28;20467;-48
2020/12/11 07:11:02;;;;;;;;;;;;;;;0.40;100.00;94970.31;5043155;28;20432;-47
2020/12/11 07:13:28;;;;;;;;;;;;;;;0.28;100.00;94966.09;5082173;28;20283;-53
2020/12/11 07:15:56;;;;;;;;;;;;;;;0.20;100.00;94968.44;5037816;28;20014;-49
2020/12/11 07:18:23;;;;;;;;;;;;;;;0.21;100.00;94970.94;5071792;28;19928;-49
2020/12/11 07:20:50;;;;;;;;;;;;;;;0.27;100.00;94966.19;5039884;28;19932;-48
2020/12/11 07:23:18;;;;;;;;;;;;;;;0.29;100.00;94965.13;5076685;28;19923;-54
2020/12/11 07:25:46;;;;;;;;;;;;;;;0.36;100.00;94970.69;5038264;28;20348;-53
2020/12/11 07:28:13;;;;;;;;;;;;;;;0.44;100.00;94965.72;5065125;28;19933;-52
2020/12/11 07:30:41;;;;;;;;;;;;;;;0.50;100.00;94969.59;5024293;28;20941;-50
2020/12/11 07:33:10;;;;;;;;;;;;;;;0.59;100.00;94963.69;5071078;28;19963;-54
2020/12/11 07:35:38;;;;;;;;;;;;;;;0.58;100.00;94977.59;5037728;28;19977;-49
2020/12/11 07:38:05;;;;;;;;;;;;;;;0.72;100.00;94982.50;5055358;28;22004;-51
2020/12/11 07:40:33;;;;;;;;;;;;;;;0.62;100.00;94977.25;5069828;28;20394;-50
2020/12/11 07:43:02;;;;;;;;;;;;;;;0.80;100.00;94980.16;5030529;28;19932;-49
2020/12/11 07:45:30;;;;;;;;;;;;;;;0.83;100.00;94981.69;5062258;28;19925;-49
2020/12/11 07:47:58;;;;;;;;;;;;;;;0.82;100.00;94973.06;5032190;28;19924;-51
2020/12/11 07:50:25;;;;;;;;;;;;;;;0.92;100.00;94978.34;5062063;28;19968;-48
2020/12/11 07:52:53;;;;;;;;;;;;;;;0.87;100.00;94972.72;5031612;28;20413;-48
2020/12/11 07:55:20;;;;;;;;;;;;;;;0.99;100.00;94968.28;5071146;28;19931;-48
2020/12/11 07:57:54;;;;;;;;;;;;;;;1.16;100.00;94965.16;5035083;28;20015;-51
2020/12/11 08:00:22;;;;;;;;;;;;;;;0.95;100.00;94965.13;5069461;28;19974;-52
2020/12/11 08:02:53;;;;;;;;;;;;;;;0.90;100.00;94962.91;5040572;28;19960;-48
2020/12/11 08:05:21;;;;;;;;;;;;;;;0.87;100.00;94962.34;5076196;28;19924;-49
2020/12/11 08:07:48;;;;;;;;;;;;;;;1.03;100.00;94954.94;5028247;28;19928;-51
2020/12/11 08:10:16;;;;;;;;;;;;;;;1.08;100.00;94952.81;5063167;28;19924;-48
2020/12/11 08:12:43;;;;;;;;;;;;;;;1.05;100.00;94942.69;5038213;28;20011;-48
2020/12/11 08:15:12;;;;;;;;;;;;;;;1.14;100.00;94941.13;5073946;28;19928;-48
2020/12/11 08:17:40;;;;;;;;;;;;;;;1.10;100.00;94939.69;5044373;28;19935;-50
2020/12/11 08:20:08;;;;;;;;;;;;;;;1.19;100.00;94933.78;5085874;28;20025;-48
2020/12/11 08:22:35;;;;;;;;;;;;;;;1.17;100.00;94920.06;5038978;28;20447;-51
2020/12/11 08:25:16;;;;;;;;;;;;;;;1.17;100.00;94920.94;5071950;28;20348;-49
2020/12/11 08:27:43;;;;;;;;;;;;;;;1.07;100.00;94907.06;5030352;28;19925;-50
2020/12/11 08:30:13;;;;;;;;;;;;;;;1.10;100.00;94917.19;5073125;28;19999;-47
2020/12/11 08:32:39;;;;;;;;;;;;;;;1.22;100.00;94909.34;5079525;28;19997;-47
2020/12/11 08:35:15;;;;;;;;;;;;;;;1.29;100.00;94905.28;5042628;28;19924;-51
2020/12/11 08:37:59;;;;;;;;;;;;;;;1.37;100.00;94897.69;5047680;28;20389;-55
2020/12/11 08:40:27;;;;;;;;;;;;;;;1.66;100.00;94905.66;5073334;28;20006;-52
2020/12/11 08:42:59;;;;;;;;;;;;;;;1.40;100.00;94905.22;5064857;28;20437;-53
2020/12/11 08:45:31;;;;;;;;;;;;;;;1.58;100.00;94901.09;5035691;28;19932;-50
2020/12/11 08:50:57;;;;;;;;;;;;;;;1.66;98.80;94900.47;5044464;28;19986;-51
2020/12/11 08:53:26;;;;;;;;;;;;;;;1.68;98.75;94908.94;5080677;28;19967;-49
2020/12/11 08:55:56;;;;;;;;;;;;;;;1.61;99.51;94903.41;5036651;28;19924;-48
2020/12/11 08:58:23;;;;;;;;;;;;;;;1.69;97.92;94902.81;5065977;28;19924;-51
2020/12/11 09:00:51;;;;;;;;;;;;;;;1.91;97.17;94896.59;5034826;28;19932;-49
2020/12/11 09:03:19;;;;;;;;;;;;;;;1.92;95.99;94893.03;5052351;28;19924;-48
2020/12/11 09:05:46;;;;;;;;;;;;;;;1.74;96.38;94902.41;5017614;28;19958;-50
2020/12/11 09:08:13;;;;;;;;;;;;;;;1.85;96.64;94892.75;5079034;28;20359;-50
2020/12/11 09:10:40;;;;;;;;;;;;;;;1.67;97.35;94889.09;5036855;28;19939;-51
2020/12/11 09:13:07;;;;;;;;;;;;;;;1.66;97.66;94884.88;5082107;28;19931;-49
2020/12/11 09:15:34;;;;;;;;;;;;;;;1.65;98.34;94888.41;5043738;28;19942;-50
2020/12/11 09:18:02;;;;;;;;;;;;;;;1.84;98.83;94887.69;5071782;28;20408;-54
2020/12/11 09:20:30;;;;;;;;;;;;;;;1.79;98.56;94884.63;5049232;28;19924;-51
2020/12/11 09:22:57;;;;;;;;;;;;;;;1.78;99.22;94873.41;5071774;28;20027;-51
2020/12/11 09:25:24;;;;;;;;;;;;;;;1.79;99.19;94866.44;5039019;28;19931;-49
2020/12/11 09:27:51;;;;;;;;;;;;;;;1.76;99.00;94866.72;5076274;28;19924;-50
2020/12/11 09:30:25;;;;;;;;;;;;;;;1.81;98.50;94867.16;5044647;28;22494;-54
2020/12/11 09:33:03;;;;;;;;;;;;;;;2.03;97.48;94860.94;5078041;28;19928;-51
2020/12/11 09:35:32;;;;;;;;;;;;;;;2.04;97.40;94860.81;5033340;28;19940;-53
2020/12/11 09:37:59;;;;;;;;;;;;;;;2.12;96.82;94855.75;5071016;28;21368;-52
2020/12/11 09:40:32;;;;;;;;;;;;;;;1.96;96.71;94855.47;5047614;28;20477;-52
2020/12/11 09:45:44;;;;;;;;;;;;;;;2.03;95.37;94856.56;5002987;28;19932;-55
2020/12/11 09:48:24;;;;;;;;;;;;;;;2.04;95.88;94845.22;5078168;28;19931;-53
2020/12/11 09:50:58;;;;;;;;;;;;;;;1.98;95.33;94845.72;5043841;28;19931;-50
2020/12/11 09:53:44;;;;;;;;;;;;;;;1.97;96.27;94836.31;5071894;28;19933;-48
2020/12/11 09:56:12;;;;;;;;;;;;;;;1.94;97.31;94827.94;5041078;28;19924;-51
2020/12/11 09:58:41;;;;;;;;;;;;;;;2.13;95.81;94822.78;5067588;28;19955;-50
2020/12/11 10:01:09;;;;;;;;;;;;;;;2.28;95.51;94818.03;5063900;28;19951;-52
2020/12/11 10:03:38;;;;;;;;;;;;;;;2.34;95.83;94809.66;5050445;28;20002;-52
2020/12/11 10:06:08;;;;;;;;;;;;;;;2.31;94.65;94810.78;5074840;28;19933;-51
2020/12/11 10:08:35;;;;;;;;;;;;;;;2.29;94.72;94802.28;5032555;28;20573;-50
2020/12/11 10:11:02;;;;;;;;;;;;;;;2.20;96.21;94803.09;5066740;28;20015;-50
2020/12/11 10:13:29;;;;;;;;;;;;;;;1.96;97.10;94802.63;5026877;28;20027;-49
2020/12/11 10:15:58;;;;;;;;;;;;;;;2.20;95.75;94797.06;5056320;28;19928;-50
2020/12/11 10:18:25;;;;;;;;;;;;;;;2.17;95.81;94799.94;5028513;28;19973;-49
2020/12/11 10:20:52;;;;;;;;;;;;;;;2.21;95.84;94790.94;5068431;28;19924;-52
2020/12/11 10:23:20;;;;;;;;;;;;;;;2.23;95.83;94783.81;5018283;28;19925;-50
2020/12/11 10:25:47;;;;;;;;;;;;;;;2.16;95.01;94783.50;5076556;28;19931;-52
2020/12/11 10:28:13;;;;;;;;;;;;;;;2.30;94.77;94779.69;5039940;28;19924;-52
2020/12/11 10:30:40;;;;;;;;;;;;;;;2.29;94.02;94772.88;5067287;28;19932;-52
2020/12/11 10:33:26;;;;;;;;;;;;;;;2.70;92.16;94763.16;5049692;28;19924;-53
2020/12/11 10:35:53;;;;;;;;;;;;;;;2.46;92.94;94771.38;5063294;28;19970;-53
2020/12/11 10:38:20;;;;;;;;;;;;;;;2.52;93.08;94755.22;5033117;28;19932;-55
2020/12/11 10:40:48;;;;;;;;;;;;;;;2.50;93.32;94755.34;5067784;28;19928;-53
2020/12/11 10:43:15;;;;;;;;;;;;;;;2.87;92.12;94752.03;5034416;28;19974;-55
2020/12/11 10:45:42;;;;;;;;;;;;;;;2.80;91.73;94753.53;5069560;28;19931;-53
2020/12/11 10:48:09;;;;;;;;;;;;;;;2.65;92.61;94754.91;5032585;28;19968;-54
2020/12/11 10:50:36;;;;;;;;;;;;;;;2.78;92.71;94747.66;5064733;28;19932;-51
2020/12/11 10:53:02;;;;;;;;;;;;;;;3.02;91.90;94750.63;5078158;28;20384;-54
2020/12/11 10:55:30;;;;;;;;;;;;;;;2.84;92.02;94742.72;5023503;28;20473;-55
2020/12/11 10:57:57;;;;;;;;;;;;;;;3.05;90.12;94747.72;5056680;28;20710;-50
2020/12/11 11:00:24;;;;;;;;;;;;;;;3.03;90.65;94749.69;5027465;28;20425;-56
2020/12/11 11:02:51;;;;;;;;;;;;;;;3.14;91.16;94742.66;5063814;28;20015;-51
2020/12/11 11:05:18;;;;;;;;;;;;;;;3.32;89.42;94743.56;5041524;28;19939;-54
2020/12/11 11:07:45;;;;;;;;;;;;;;;3.37;89.13;94743.94;5044588;28;19925;-57
2020/12/11 11:10:21;;;;;;;;;;;;;;;3.16;90.60;94741.53;5033708;28;19977;-53
2020/12/11 11:12:53;;;;;;;;;;;;;;;3.09;90.12;94741.28;5064990;28;20286;-53
2020/12/11 11:18:12;;;;;;;;;;;;;;;2.85;93.25;94735.72;5070736;28;20336;-51
2020/12/11 11:23:34;;;;;;;;;;;;;;;2.61;94.12;94730.94;5068274;28;19955;-51
2020/12/11 11:28:37;;;;;;;;;;;;;;;2.83;93.81;94727.25;5065861;28;19952;-53
2020/12/11 11:31:03;;;;;;;;;;;;;;;3.05;92.54;94724.28;5030513;28;20460;-52
2020/12/11 11:33:30;;;;;;;;;;;;;;;3.06;91.89;94720.75;5072009;28;19928;-49
2020/12/11 11:35:57;;;;;;;;;;;;;;;2.92;91.00;94715.97;5018154;28;19952;-52
2020/12/11 11:38:24;;;;;;;;;;;;;;;2.80;91.92;94714.50;5072449;28;19928;-52
2020/12/11 11:40:52;;;;;;;;;;;;;;;2.72;92.46;94712.59;5037945;28;19924;-52
2020/12/11 11:43:23;;;;;;;;;;;;;;;2.65;92.67;94705.47;5070931;28;19931;-54
2020/12/11 11:45:51;;;;;;;;;;;;;;;2.96;91.44;94717.34;5025400;28;19972;-53
2020/12/11 11:48:19;;;;;;;;;;;;;;;3.09;91.24;94715.22;5072354;28;19932;-54
2020/12/11 11:50:52;;;;;;;;;;;;;;;3.15;90.30;94713.84;5041836;28;21757;-53
2020/12/11 11:53:23;;;;;;;;;;;;;;;3.17;89.87;94706.72;5072817;28;19932;-52
2020/12/11 11:55:50;;;;;;;;;;;;;;;3.24;89.50;94707.81;5035705;28;19929;-49
2020/12/11 11:58:16;;;;;;;;;;;;;;;3.07;89.46;94700.75;5078602;28;20403;-50
2020/12/11 12:00:43;;;;;;;;;;;;;;;3.09;89.97;94707.41;5064202;28;19980;-54
2020/12/11 12:03:11;;;;;;;;;;;;;;;3.31;88.68;94702.84;5033316;28;19924;-50
2020/12/11 12:05:38;;;;;;;;;;;;;;;3.30;88.99;94712.44;5079359;28;20015;-50
2020/12/11 12:08:05;;;;;;;;;;;;;;;3.31;89.43;94706.25;5035995;28;19936;-49
2020/12/11 12:10:31;;;;;;;;;;;;;;;3.15;89.78;94707.84;5063216;28;20019;-53
2020/12/11 12:12:58;;;;;;;;;;;;;;;2.87;90.28;94712.97;5039442;28;20025;-50
2020/12/11 12:15:27;;;;;;;;;;;;;;;2.82;91.86;94710.81;5066181;28;20303;-52
2020/12/11 12:17:59;;;;;;;;;;;;;;;3.08;92.20;94715.38;5038188;28;19924;-55
2020/12/11 12:20:39;;;;;;;;;;;;;;;3.25;91.19;94714.66;5069252;28;20362;-51
2020/12/11 12:28:54;;;;;;;;;;;;;;;3.46;87.86;94713.59;5035765;28;19924;-52
2020/12/11 12:31:24;;;;;;;;;;;;;;;3.59;87.19;94708.06;5065928;28;20595;-52
2020/12/11 12:36:56;;;;;;;;;;;;;;;3.19;90.02;94711.78;5070609;27;20421;-52
2020/12/11 12:42:39;;;;;;;;;;;;;;;3.75;87.74;94703.00;5035252;28;19975;-54
2020/12/11 12:45:06;;;;;;;;;;;;;;;3.37;87.31;94701.44;5020869;28;19975;-52
2020/12/11 12:47:33;;;;;;;;;;;;;;;3.28;89.98;94692.72;5018906;28;19926;-52
2020/12/11 12:50:01;;;;;;;;;;;;;;;2.95;90.54;94691.44;5021392;28;19948;-52
2020/12/11 12:52:28;;;;;;;;;;;;;;;2.81;91.75;94683.13;5042836;28;19960;-51
2020/12/11 12:54:59;;;;;;;;;;;;;;;2.87;91.29;94692.16;5013092;28;19932;-51
2020/12/11 12:57:31;;;;;;;;;;;;;;;2.76;91.24;94692.34;5033848;28;20296;-49
2020/12/11 13:00:06;;;;;;;;;;;;;;;3.06;89.98;94683.44;4987431;28;19932;-50
2020/12/11 13:05:30;;;;;;;;;;;;;;;2.69;93.48;94686.06;4991589;28;19925;-52
2020/12/11 13:07:58;;;;;;;;;;;;;;;2.49;93.91;94674.84;5023173;28;20020;-53
2020/12/11 13:10:25;;;;;;;;;;;;;;;2.53;95.24;94681.41;4987734;28;19929;-49
2020/12/11 13:12:51;;;;;;;;;;;;;;;2.67;94.40;94670.56;5020295;28;20362;-54
2020/12/11 13:15:18;;;;;;;;;;;;;;;2.80;94.69;94667.66;4990736;28;20357;-54
2020/12/11 13:17:45;;;;;;;;;;;;;;;2.77;94.40;94673.97;5051805;28;19963;-53
2020/12/11 13:20:14;;;;;;;;;;;;;;;2.68;95.22;94673.97;5017453;28;19925;-53
2020/12/11 13:25:18;;;;;;;;;;;;;;;2.76;94.17;94674.13;5050584;28;20473;-52
2020/12/11 13:26:10;;;;;;;;;;;;;;;2.60;95.33;94665.09;5021340;28;20432;-51